createdAt,value
2022-10-22T00:02:24.616Z,7.08
2022-10-22T00:04:51.690Z,7.04
2022-10-22T00:07:19.333Z,7.04
2022-10-22T00:09:47.201Z,6.85
2022-10-22T00:12:16.033Z,6.99
2022-10-22T00:14:43.553Z,6.93
2022-10-22T00:17:11.487Z,7.04
2022-10-22T00:19:40.032Z,6.65
2022-10-22T00:22:08.758Z,6.92
2022-10-22T00:24:38.635Z,6.88
2022-10-22T00:27:06.847Z,6.87
2022-10-22T00:29:35.184Z,6.24
2022-10-22T00:32:02.550Z,6.77
2022-10-22T00:34:29.801Z,6.79
2022-10-22T00:36:57.862Z,6.63
2022-10-22T00:39:26.326Z,6.80
2022-10-22T00:41:54.636Z,6.47
2022-10-22T00:44:59.502Z,6.56
2022-10-22T00:47:29.123Z,6.26
2022-10-22T00:49:57.475Z,6.58
2022-10-22T00:52:25.236Z,6.41
2022-10-22T00:54:52.785Z,6.34
2022-10-22T00:57:21.445Z,6.52
2022-10-22T00:59:49.136Z,6.47
2022-10-22T01:02:16.995Z,6.45
2022-10-22T01:04:44.918Z,6.31
2022-10-22T01:07:21.503Z,6.08
2022-10-22T01:09:51.346Z,6.42
2022-10-22T01:13:07.024Z,6.27
2022-10-22T01:15:43.405Z,6.43
2022-10-22T01:18:29.429Z,6.32
2022-10-22T01:20:56.300Z,6.39
2022-10-22T01:23:53.060Z,6.40
2022-10-22T01:26:42.836Z,6.35
2022-10-22T01:29:34.438Z,6.33
2022-10-22T01:32:05.902Z,6.23
2022-10-22T01:34:34.648Z,5.87
2022-10-22T01:37:03.089Z,6.11
2022-10-22T01:39:31.676Z,6.04
2022-10-22T01:41:58.670Z,6.32
2022-10-22T01:44:31.891Z,6.17
2022-10-22T01:47:21.489Z,6.07
2022-10-22T01:50:14.429Z,6.25
2022-10-22T01:53:26.544Z,6.31
2022-10-22T01:56:15.227Z,6.28
2022-10-22T01:58:53.141Z,6.27
2022-10-22T02:01:32.388Z,6.21
2022-10-22T02:04:11.561Z,6.28
2022-10-22T02:06:41.268Z,6.19
2022-10-22T02:09:10.702Z,6.10
2022-10-22T02:11:38.879Z,6.10
2022-10-22T02:14:09.282Z,5.91
2022-10-22T02:16:42.219Z,5.94
2022-10-22T02:19:19.962Z,6.02
2022-10-22T02:21:47.150Z,5.99
2022-10-22T02:24:14.748Z,6.06
2022-10-22T02:27:12.197Z,6.19
2022-10-22T02:29:52.297Z,6.19
2022-10-22T02:32:24.889Z,6.03
2022-10-22T02:34:54.093Z,6.12
2022-10-22T02:37:22.882Z,6.16
2022-10-22T02:39:51.538Z,6.15
2022-10-22T02:42:18.629Z,5.74
2022-10-22T02:44:45.613Z,5.99
2022-10-22T02:47:12.698Z,5.72
2022-10-22T02:49:39.608Z,5.87
2022-10-22T02:52:06.703Z,6.13
2022-10-22T02:54:33.791Z,5.87
2022-10-22T02:57:00.705Z,5.95
2022-10-22T02:59:27.613Z,6.07
2022-10-22T03:01:54.558Z,5.97
2022-10-22T03:04:21.522Z,6.01
2022-10-22T03:06:49.286Z,6.03
2022-10-22T03:09:17.484Z,5.93
2022-10-22T03:11:47.244Z,6.15
2022-10-22T03:14:14.597Z,6.12
2022-10-22T03:16:41.753Z,6.16
2022-10-22T03:19:08.807Z,5.90
2022-10-22T03:21:41.598Z,6.17
2022-10-22T03:24:13.861Z,6.11
2022-10-22T03:26:42.244Z,6.00
2022-10-22T03:29:12.032Z,5.94
2022-10-22T03:31:39.012Z,6.10
2022-10-22T03:34:06.014Z,6.00
2022-10-22T03:36:33.518Z,6.11
2022-10-22T03:39:01.938Z,6.11
2022-10-22T03:41:29.359Z,5.97
2022-10-22T03:43:57.622Z,5.92
2022-10-22T03:46:24.606Z,5.91
2022-10-22T03:48:51.577Z,5.89
2022-10-22T03:51:18.631Z,6.13
2022-10-22T03:53:45.626Z,6.02
2022-10-22T03:56:13.282Z,6.15
2022-10-22T03:58:41.489Z,6.14
2022-10-22T04:01:10.938Z,6.14
2022-10-22T04:03:40.038Z,6.03
2022-10-22T04:06:09.516Z,6.11
2022-10-22T04:08:39.795Z,5.90
2022-10-22T04:11:07.201Z,6.04
2022-10-22T04:13:34.657Z,6.09
2022-10-22T04:16:20.111Z,6.02
2022-10-22T04:18:48.603Z,6.18
2022-10-22T04:21:19.285Z,5.76
2022-10-22T04:23:48.064Z,6.00
2022-10-22T04:26:15.686Z,6.14
2022-10-22T04:28:42.887Z,6.03
2022-10-22T04:31:15.648Z,6.12
2022-10-22T04:33:43.047Z,6.15
2022-10-22T04:36:12.881Z,6.16
2022-10-22T04:38:40.924Z,6.16
2022-10-22T04:41:16.995Z,6.19
2022-10-22T04:43:44.875Z,6.21
2022-10-22T04:46:13.293Z,6.20
2022-10-22T04:48:42.611Z,5.92
2022-10-22T04:51:12.899Z,6.20
2022-10-22T04:53:43.366Z,6.03
2022-10-22T04:56:36.653Z,6.23
2022-10-22T04:59:08.152Z,6.23
2022-10-22T05:01:41.666Z,6.26
2022-10-22T05:04:13.337Z,6.29
2022-10-22T05:06:40.429Z,6.28
2022-10-22T05:09:11.193Z,6.24
2022-10-22T05:11:41.767Z,6.21
2022-10-22T05:14:10.723Z,6.18
2022-10-22T05:16:40.803Z,6.23
2022-10-22T05:19:08.322Z,6.31
2022-10-22T05:21:37.637Z,6.33
2022-10-22T05:24:04.933Z,6.00
2022-10-22T05:26:31.869Z,6.24
2022-10-22T05:28:58.886Z,6.27
2022-10-22T05:31:26.286Z,6.31
2022-10-22T05:33:53.164Z,6.42
2022-10-22T05:36:22.445Z,6.43
2022-10-22T05:38:50.105Z,6.27
2022-10-22T05:41:20.519Z,6.52
2022-10-22T05:43:47.528Z,6.59
2022-10-22T05:46:22.004Z,6.50
2022-10-22T05:48:57.539Z,6.68
2022-10-22T05:51:25.798Z,6.50
2022-10-22T05:53:55.354Z,6.72
2022-10-22T05:56:23.505Z,6.75
2022-10-22T05:58:50.989Z,6.77
2022-10-22T06:01:19.230Z,6.85
2022-10-22T06:03:47.835Z,6.88
2022-10-22T06:06:26.235Z,6.91
2022-10-22T06:08:54.381Z,6.90
2022-10-22T06:11:23.307Z,7.00
2022-10-22T06:13:51.085Z,6.97
2022-10-22T06:16:18.360Z,7.05
2022-10-22T06:18:45.723Z,7.08
2022-10-22T06:21:14.510Z,7.11
2022-10-22T06:23:44.012Z,7.16
2022-10-22T06:26:11.688Z,7.37
2022-10-22T06:28:39.297Z,7.38
2022-10-22T06:31:07.017Z,7.43
2022-10-22T06:33:34.506Z,7.55
2022-10-22T06:36:09.244Z,7.64
2022-10-22T06:38:36.179Z,7.61
2022-10-22T06:41:05.452Z,7.59
2022-10-22T06:43:32.532Z,7.86
2022-10-22T06:46:04.566Z,7.83
2022-10-22T06:48:31.729Z,8.13
2022-10-22T06:51:06.175Z,7.97
2022-10-22T06:53:33.519Z,8.32
2022-10-22T06:56:05.914Z,8.34
2022-10-22T06:58:32.852Z,8.70
2022-10-22T07:01:05.222Z,8.79
2022-10-22T07:03:32.270Z,8.69
2022-10-22T07:06:01.459Z,8.88
2022-10-22T07:08:29.242Z,9.23
2022-10-22T07:10:56.814Z,9.40
2022-10-22T07:13:23.776Z,9.32
2022-10-22T07:15:55.146Z,9.63
2022-10-22T07:18:22.575Z,9.84
2022-10-22T07:20:49.783Z,10.02
2022-10-22T07:23:17.487Z,10.20
2022-10-22T07:25:44.538Z,10.23
2022-10-22T07:28:11.798Z,10.52
2022-10-22T07:30:40.293Z,10.47
2022-10-22T07:33:07.759Z,10.85
2022-10-22T07:35:35.133Z,11.05
2022-10-22T07:38:02.154Z,11.16
2022-10-22T07:40:29.142Z,11.12
2022-10-22T07:42:56.337Z,11.31
2022-10-22T07:45:23.454Z,11.36
2022-10-22T07:47:50.499Z,11.45
2022-10-22T07:50:18.446Z,11.58
2022-10-22T07:52:45.578Z,11.69
2022-10-22T07:55:13.611Z,12.03
2022-10-22T07:57:40.993Z,12.08
2022-10-22T08:00:09.598Z,12.56
2022-10-22T08:02:39.768Z,12.69
2022-10-22T08:05:07.735Z,12.63
2022-10-22T08:07:34.780Z,12.88
2022-10-22T08:10:02.014Z,13.17
2022-10-22T08:12:29.374Z,13.17
2022-10-22T08:14:56.500Z,13.17
2022-10-22T08:17:23.481Z,13.60
2022-10-22T08:19:50.562Z,13.60
2022-10-22T08:22:17.564Z,13.76
2022-10-22T08:24:44.668Z,14.06
2022-10-22T08:27:11.678Z,13.87
2022-10-22T08:29:38.975Z,14.35
2022-10-22T08:32:06.000Z,14.51
2022-10-22T08:34:33.053Z,14.52
2022-10-22T08:37:00.140Z,14.45
2022-10-22T08:39:27.351Z,14.89
2022-10-22T08:42:31.864Z,15.13
2022-10-22T08:45:25.350Z,15.31
2022-10-22T08:48:04.440Z,15.47
2022-10-22T08:50:38.909Z,15.59
2022-10-22T08:53:15.898Z,15.63
2022-10-22T08:55:44.624Z,15.88
2022-10-22T08:58:32.364Z,16.05
2022-10-22T09:01:02.798Z,16.02
2022-10-22T09:03:38.663Z,16.32
2022-10-22T09:06:16.013Z,16.48
2022-10-22T09:08:45.126Z,16.62
2022-10-22T09:11:23.072Z,16.67
2022-10-22T09:13:51.392Z,16.90
2022-10-22T09:16:59.915Z,17.10
2022-10-22T09:19:35.873Z,17.24
2022-10-22T09:22:30.469Z,16.99
2022-10-22T09:25:26.009Z,17.52
2022-10-22T09:27:58.309Z,17.53
2022-10-22T09:30:29.978Z,17.63
2022-10-22T09:33:08.174Z,17.87
2022-10-22T09:35:46.822Z,17.96
2022-10-22T09:38:16.202Z,18.01
2022-10-22T09:40:53.568Z,18.18
2022-10-22T09:43:21.302Z,18.13
2022-10-22T09:46:01.804Z,18.24
2022-10-22T09:48:42.066Z,18.35
2022-10-22T09:51:23.162Z,18.64
2022-10-22T09:53:58.795Z,18.33
2022-10-22T09:56:28.806Z,18.61
2022-10-22T09:58:58.069Z,18.77
2022-10-22T10:01:34.100Z,18.88
2022-10-22T10:04:10.180Z,19.15
2022-10-22T10:06:40.487Z,19.16
2022-10-22T10:09:16.638Z,19.34
2022-10-22T10:11:46.956Z,19.45
2022-10-22T10:14:21.722Z,19.54
2022-10-22T10:17:04.849Z,19.50
2022-10-22T10:19:50.184Z,19.72
2022-10-22T10:22:52.616Z,19.81
2022-10-22T10:25:32.991Z,19.82
2022-10-22T10:28:21.032Z,20.01
2022-10-22T10:31:21.768Z,20.06
2022-10-22T10:34:13.423Z,20.15
2022-10-22T10:36:45.453Z,20.10
2022-10-22T10:39:30.442Z,20.04
2022-10-22T10:42:06.865Z,20.43
2022-10-22T10:44:45.783Z,20.49
2022-10-22T10:47:29.030Z,20.37
2022-10-22T10:50:19.883Z,20.58
2022-10-22T10:53:07.716Z,20.73
2022-10-22T10:55:42.465Z,20.58
2022-10-22T10:58:39.325Z,20.77
2022-10-22T11:01:27.361Z,20.95
2022-10-22T11:04:32.076Z,20.99
2022-10-22T11:07:11.536Z,20.60
2022-10-22T11:09:51.199Z,20.91
2022-10-22T11:12:29.065Z,21.19
2022-10-22T11:15:18.079Z,21.13
2022-10-22T11:17:48.985Z,21.26
2022-10-22T11:20:22.597Z,21.19
2022-10-22T11:23:18.826Z,21.28
2022-10-22T11:25:51.355Z,21.40
2022-10-22T11:28:26.052Z,21.42
2022-10-22T11:31:03.315Z,21.50
2022-10-22T11:34:04.675Z,21.50
2022-10-22T11:36:38.345Z,21.32
2022-10-22T11:39:05.620Z,21.55
2022-10-22T11:41:34.653Z,21.72
2022-10-22T11:44:07.685Z,21.78
2022-10-22T11:46:46.217Z,21.66
2022-10-22T11:49:13.192Z,21.83
2022-10-22T11:51:43.098Z,21.85
2022-10-22T11:54:30.241Z,22.09
2022-10-22T11:57:46.567Z,22.05
2022-10-22T12:00:46.314Z,22.14
2022-10-22T12:03:39.960Z,22.05
2022-10-22T12:06:12.922Z,22.11
2022-10-22T12:08:49.069Z,22.16
2022-10-22T12:11:37.938Z,22.25
2022-10-22T12:14:19.560Z,22.32
2022-10-22T12:16:57.439Z,22.34
2022-10-22T12:19:36.138Z,22.26
2022-10-22T12:22:27.080Z,22.32
2022-10-22T12:24:57.369Z,22.50
2022-10-22T12:27:34.899Z,22.40
2022-10-22T12:30:11.100Z,22.47
2022-10-22T12:32:41.507Z,22.39
2022-10-22T12:35:20.645Z,22.61
2022-10-22T12:38:13.629Z,22.61
2022-10-22T12:40:45.825Z,22.64
2022-10-22T12:43:24.260Z,22.64
2022-10-22T12:45:52.173Z,22.56
2022-10-22T12:48:29.358Z,22.72
2022-10-22T12:50:59.796Z,22.75
2022-10-22T12:53:37.950Z,22.73
2022-10-22T12:56:10.608Z,22.84
2022-10-22T12:58:47.480Z,22.96
2022-10-22T13:01:17.435Z,22.72
2022-10-22T13:03:50.867Z,23.04
2022-10-22T13:06:20.996Z,23.10
2022-10-22T13:09:00.475Z,23.12
2022-10-22T13:11:40.169Z,23.19
2022-10-22T13:14:26.376Z,23.22
2022-10-22T13:17:10.519Z,23.27
2022-10-22T13:20:01.927Z,23.13
2022-10-22T13:22:37.991Z,23.37
2022-10-22T13:25:20.000Z,23.39
2022-10-22T13:27:49.843Z,23.41
2022-10-22T13:30:26.620Z,23.36
2022-10-22T13:33:06.057Z,23.54
2022-10-22T13:35:37.473Z,23.44
2022-10-22T13:38:18.529Z,23.55
2022-10-22T13:40:46.235Z,23.43
2022-10-22T13:43:13.186Z,23.41
2022-10-22T13:45:40.647Z,23.44
2022-10-22T13:48:15.001Z,23.40
2022-10-22T13:50:42.038Z,23.32
2022-10-22T13:53:22.279Z,23.15
2022-10-22T13:55:50.399Z,23.15
2022-10-22T13:58:20.278Z,22.83
2022-10-22T14:00:59.118Z,22.80
2022-10-22T14:03:34.656Z,22.97
2022-10-22T14:06:01.809Z,22.83
2022-10-22T14:08:28.923Z,22.61
2022-10-22T14:10:56.317Z,22.70
2022-10-22T14:13:26.731Z,22.42
2022-10-22T14:15:53.906Z,22.41
2022-10-22T14:18:26.511Z,22.21
2022-10-22T14:20:56.966Z,22.01
2022-10-22T14:23:27.526Z,22.04
2022-10-22T14:25:55.596Z,21.95
2022-10-22T14:28:22.775Z,21.75
2022-10-22T14:30:50.477Z,21.69
2022-10-22T14:33:21.302Z,21.59
2022-10-22T14:35:49.276Z,21.55
2022-10-22T14:38:17.898Z,21.30
2022-10-22T14:40:45.670Z,21.33
2022-10-22T14:43:38.197Z,21.19
2022-10-22T14:46:05.319Z,21.10
2022-10-22T14:48:32.368Z,21.00
2022-10-22T14:50:59.378Z,20.81
2022-10-22T14:53:26.307Z,20.89
2022-10-22T14:55:55.634Z,20.74
2022-10-22T14:58:22.666Z,20.63
2022-10-22T15:00:49.719Z,20.65
2022-10-22T15:03:16.850Z,20.37
2022-10-22T15:05:44.991Z,20.52
2022-10-22T15:08:13.666Z,20.00
2022-10-22T15:10:40.946Z,20.20
2022-10-22T15:13:08.191Z,20.13
2022-10-22T15:15:39.644Z,19.85
2022-10-22T15:18:07.238Z,19.90
2022-10-22T15:20:34.280Z,19.94
2022-10-22T15:23:01.285Z,19.67
2022-10-22T15:25:28.895Z,19.60
2022-10-22T15:28:00.677Z,19.47
2022-10-22T15:30:31.900Z,19.28
2022-10-22T15:32:58.830Z,19.35
2022-10-22T15:35:28.930Z,19.17
2022-10-22T15:37:55.967Z,19.04
2022-10-22T15:40:22.979Z,19.11
2022-10-22T15:42:50.998Z,18.90
2022-10-22T15:45:18.385Z,19.10
2022-10-22T15:47:47.630Z,18.82
2022-10-22T15:50:15.205Z,18.60
2022-10-22T15:52:42.100Z,18.43
2022-10-22T15:55:10.756Z,18.68
2022-10-22T15:57:39.199Z,18.48
2022-10-22T16:00:08.165Z,18.55
2022-10-22T16:02:41.972Z,18.33
2022-10-22T16:05:09.490Z,18.54
2022-10-22T16:07:39.771Z,18.41
2022-10-22T16:10:08.008Z,18.00
2022-10-22T16:12:36.146Z,17.90
2022-10-22T16:15:03.251Z,18.09
2022-10-22T16:17:30.343Z,18.17
2022-10-22T16:19:57.298Z,18.04
2022-10-22T16:22:24.488Z,17.86
2022-10-22T16:24:51.416Z,17.59
2022-10-22T16:27:18.438Z,17.52
2022-10-22T16:29:45.435Z,17.86
2022-10-22T16:32:13.393Z,17.84
2022-10-22T16:34:42.096Z,17.48
2022-10-22T16:37:10.480Z,17.63
2022-10-22T16:39:37.900Z,17.77
2022-10-22T16:42:05.301Z,17.75
2022-10-22T16:44:32.286Z,17.76
2022-10-22T16:46:59.368Z,17.58
2022-10-22T16:49:26.729Z,17.54
2022-10-22T16:51:53.675Z,17.68
2022-10-22T16:57:02.681Z,17.58
2022-10-22T16:59:29.597Z,17.27
2022-10-22T17:01:57.507Z,17.36
2022-10-22T17:04:24.518Z,17.44
2022-10-22T17:06:51.559Z,17.22
2022-10-22T17:09:18.715Z,17.15
2022-10-22T17:11:45.685Z,17.26
2022-10-22T17:14:13.891Z,17.09
2022-10-22T17:16:41.073Z,16.92
2022-10-22T17:19:08.322Z,16.90
2022-10-22T17:21:35.327Z,17.06
2022-10-22T17:24:18.629Z,16.90
2022-10-22T17:27:10.874Z,16.92
2022-10-22T17:29:37.960Z,16.76
2022-10-22T17:32:05.161Z,16.95
2022-10-22T17:34:33.402Z,16.82
2022-10-22T17:37:29.094Z,16.71
2022-10-22T17:39:55.944Z,16.63
2022-10-22T17:42:22.854Z,16.58
2022-10-22T17:44:50.016Z,16.55
2022-10-22T17:47:17.022Z,16.40
2022-10-22T17:49:44.108Z,16.45
2022-10-22T17:52:13.839Z,16.36
2022-10-22T17:54:42.102Z,16.32
2022-10-22T17:57:09.767Z,16.50
2022-10-22T17:59:36.817Z,16.48
2022-10-22T18:02:04.170Z,16.42
2022-10-22T18:04:32.262Z,16.42
2022-10-22T18:06:59.725Z,16.41
2022-10-22T18:09:27.007Z,16.28
2022-10-22T18:11:54.947Z,16.28
2022-10-22T18:19:39.504Z,16.24
2022-10-22T18:22:08.042Z,15.82
2022-10-22T18:24:36.831Z,16.07
2022-10-22T18:27:04.150Z,16.03
2022-10-22T18:29:31.194Z,16.03
2022-10-22T18:31:58.125Z,15.83
2022-10-22T18:34:25.138Z,15.83
2022-10-22T18:36:52.250Z,15.95
2022-10-22T18:39:19.692Z,15.69
2022-10-22T18:41:46.708Z,15.86
2022-10-22T18:44:15.406Z,15.89
2022-10-22T18:46:42.953Z,15.87
2022-10-22T18:49:16.527Z,15.76
2022-10-22T18:51:43.453Z,15.61
2022-10-22T18:54:22.702Z,15.84
2022-10-22T18:56:50.551Z,15.44
2022-10-22T18:59:23.235Z,15.80
2022-10-22T19:01:52.715Z,15.71
2022-10-22T19:04:20.052Z,15.75
2022-10-22T19:06:47.251Z,15.60
2022-10-22T19:09:15.669Z,15.43
2022-10-22T19:11:44.360Z,15.56
2022-10-22T19:14:11.353Z,15.53
2022-10-22T19:16:38.853Z,15.61
2022-10-22T19:19:07.423Z,15.33
2022-10-22T19:21:36.645Z,15.61
2022-10-22T19:24:06.468Z,15.51
2022-10-22T19:26:33.720Z,15.53
2022-10-22T19:29:00.814Z,15.60
2022-10-22T19:31:30.188Z,15.56
2022-10-22T19:33:58.848Z,15.39
2022-10-22T19:36:30.391Z,15.35
2022-10-22T19:38:57.643Z,15.35
2022-10-22T19:41:26.922Z,15.53
2022-10-22T19:43:54.875Z,15.28
2022-10-22T19:46:23.091Z,15.31
2022-10-22T19:48:51.537Z,15.22
2022-10-22T19:51:21.692Z,15.21
2022-10-22T19:53:49.625Z,15.36
2022-10-22T19:56:20.037Z,15.12
2022-10-22T19:58:47.894Z,15.18
2022-10-22T20:01:17.072Z,15.16
2022-10-22T20:03:44.298Z,15.21
2022-10-22T20:06:13.969Z,15.01
2022-10-22T20:08:41.445Z,15.15
2022-10-22T20:11:15.402Z,14.96
2022-10-22T20:13:43.627Z,14.92
2022-10-22T20:16:15.903Z,14.77
2022-10-22T20:18:43.038Z,14.65
2022-10-22T20:21:13.960Z,14.77
2022-10-22T20:23:42.168Z,14.83
2022-10-22T20:26:09.852Z,14.81
2022-10-22T20:28:38.392Z,14.84
2022-10-22T20:31:17.676Z,14.70
2022-10-22T20:33:44.814Z,14.58
2022-10-22T20:36:21.194Z,14.72
2022-10-22T20:38:48.658Z,14.57
2022-10-22T20:41:19.501Z,14.62
2022-10-22T20:43:48.165Z,14.62
2022-10-22T20:46:29.532Z,14.61
2022-10-22T20:49:06.312Z,14.38
2022-10-22T20:51:34.986Z,14.49
2022-10-22T20:54:02.169Z,14.28
2022-10-22T20:56:29.432Z,14.38
2022-10-22T20:59:04.599Z,14.53
2022-10-22T21:01:53.024Z,14.65
2022-10-22T21:04:21.559Z,14.40
2022-10-22T21:06:50.370Z,14.46
2022-10-22T21:09:17.498Z,14.18
2022-10-22T21:11:44.594Z,14.36
2022-10-22T21:14:13.801Z,14.40
2022-10-22T21:16:46.592Z,14.47
2022-10-22T21:19:13.589Z,14.15
2022-10-22T21:21:41.007Z,14.28
2022-10-22T21:24:08.063Z,14.20
2022-10-22T21:26:39.611Z,14.36
2022-10-22T21:29:07.048Z,14.37
2022-10-22T21:31:34.200Z,14.28
2022-10-22T21:34:01.248Z,14.10
2022-10-22T21:36:28.241Z,14.38
2022-10-22T21:38:55.496Z,14.36
2022-10-22T21:41:23.970Z,14.26
2022-10-22T21:43:56.214Z,14.17
2022-10-22T21:46:25.818Z,14.23
2022-10-22T21:48:54.748Z,14.19
2022-10-22T21:51:23.412Z,14.07
2022-10-22T21:56:36.348Z,14.08
2022-10-22T21:59:21.870Z,13.97
2022-10-22T22:01:49.013Z,14.25
2022-10-22T22:04:15.956Z,14.23
2022-10-22T22:06:54.107Z,14.24
2022-10-22T22:09:21.973Z,14.21
2022-10-22T22:11:49.096Z,14.06
2022-10-22T22:14:16.168Z,14.15
2022-10-22T22:16:43.044Z,14.21
2022-10-22T22:19:10.695Z,14.21
2022-10-22T22:21:39.868Z,14.25
2022-10-22T22:24:08.367Z,13.95
2022-10-22T22:26:35.396Z,14.15
2022-10-22T22:29:02.606Z,14.15
2022-10-22T22:31:32.239Z,14.04
2022-10-22T22:34:05.802Z,14.15
2022-10-22T22:36:35.475Z,14.18
2022-10-22T22:39:07.155Z,14.13
2022-10-22T22:41:34.552Z,14.17
2022-10-22T22:44:01.875Z,14.16
2022-10-22T22:46:29.089Z,13.97
2022-10-22T22:48:56.302Z,13.94
2022-10-22T22:51:23.770Z,13.87
2022-10-22T22:53:51.400Z,14.17
2022-10-22T22:56:22.643Z,14.20
2022-10-22T22:58:50.200Z,14.03
2022-10-22T23:01:20.839Z,14.02
2022-10-22T23:03:54.408Z,13.88
2022-10-22T23:06:21.392Z,13.89
2022-10-22T23:08:50.509Z,14.05
2022-10-22T23:11:18.190Z,13.97
2022-10-22T23:13:45.813Z,14.11
2022-10-22T23:16:19.116Z,13.87
2022-10-22T23:18:47.988Z,14.03
2022-10-22T23:21:26.947Z,14.05
2022-10-22T23:23:58.443Z,14.06
2022-10-22T23:26:29.437Z,13.97
2022-10-22T23:29:01.672Z,13.81
2022-10-22T23:31:28.744Z,13.85
2022-10-22T23:33:55.718Z,13.99
2022-10-22T23:36:22.812Z,13.71
2022-10-22T23:38:50.975Z,13.91
2022-10-22T23:44:24.949Z,13.83
2022-10-22T23:46:52.311Z,13.64
2022-10-22T23:49:19.453Z,13.77
2022-10-22T23:51:46.600Z,13.84
2022-10-22T23:54:16.006Z,13.78
2022-10-22T23:56:43.079Z,13.55
2022-10-22T23:59:10.672Z,13.47
